createdAt,value
2018-02-01T00:00:49.562Z,99165.06
2018-02-01T00:01:52.065Z,99162.31
2018-02-01T00:02:54.546Z,99152.88
2018-02-01T00:03:56.998Z,99149.73
2018-02-01T00:04:59.473Z,99153.85
2018-02-01T00:06:01.927Z,99163.06
2018-02-01T00:07:04.391Z,99161.69
2018-02-01T00:08:06.870Z,99167.19
2018-02-01T00:09:09.340Z,99162.48
2018-02-01T00:10:11.817Z,99163.24
2018-02-01T00:11:14.285Z,99165.02
2018-02-01T00:12:16.738Z,99165.81
2018-02-01T00:13:19.233Z,99164.44
2018-02-01T00:14:21.705Z,99165.59
2018-02-01T00:15:24.159Z,99161.88
2018-02-01T00:16:26.610Z,99163.42
2018-02-01T00:17:29.067Z,99165.99
2018-02-01T00:18:31.546Z,99171.88
2018-02-01T00:19:34.014Z,99171.48
2018-02-01T00:20:36.485Z,99179.15
2018-02-01T00:21:38.943Z,99172.11
2018-02-01T00:22:41.416Z,99167.98
2018-02-01T00:23:43.895Z,99169.36
2018-02-01T00:25:48.095Z,99174.27
2018-02-01T00:26:50.565Z,99170.73
2018-02-01T00:27:53.025Z,99166.61
2018-02-01T00:28:55.525Z,99170.16
2018-02-01T00:29:58.007Z,99164.27
2018-02-01T00:31:00.485Z,99167.81
2018-02-01T00:32:02.939Z,99165.45
2018-02-01T00:33:05.417Z,99157.62
2018-02-01T00:34:07.916Z,99163.37
2018-02-01T00:35:10.389Z,99157.99
2018-02-01T00:36:14.159Z,99160.91
2018-02-01T00:37:16.634Z,99163.95
2018-02-01T00:38:19.092Z,99167.87
2018-02-01T00:39:21.575Z,99162.67
2018-02-01T00:40:24.045Z,99167.16
2018-02-01T00:41:26.513Z,99167.45
2018-02-01T00:42:28.994Z,99171.48
2018-02-01T00:43:31.447Z,99178.25
2018-02-01T00:44:33.941Z,99173.88
2018-02-01T00:45:36.399Z,99175.29
2018-02-01T00:46:38.854Z,99174.13
2018-02-01T00:47:41.333Z,99173.38
2018-02-01T00:48:43.809Z,99178.73
2018-02-01T00:49:46.300Z,99177.75
2018-02-01T00:50:48.762Z,99177.58
2018-02-01T00:51:51.222Z,99173.45
2018-02-01T00:52:53.697Z,99171.28
2018-02-01T00:53:56.154Z,99175.19
2018-02-01T00:54:58.636Z,99168.53
2018-02-01T00:56:01.111Z,99172.47
2018-02-01T00:57:03.572Z,99176.81
2018-02-01T00:58:06.041Z,99169.33
2018-02-01T00:59:08.502Z,99173.48
2018-02-01T01:00:10.997Z,99175.27
2018-02-01T01:01:13.455Z,99170.01
2018-02-01T01:02:15.928Z,99175.73
2018-02-01T01:03:18.391Z,99172.22
2018-02-01T01:04:20.850Z,99171.02
2018-02-01T01:05:23.331Z,99174.35
2018-02-01T01:06:25.809Z,99175.73
2018-02-01T01:07:28.266Z,99170.23
2018-02-01T01:08:30.727Z,99174.53
2018-02-01T01:09:33.197Z,99168.45
2018-02-01T01:10:35.687Z,99168.63
2018-02-01T01:11:38.142Z,99173.48
2018-02-01T01:12:40.608Z,99165.81
2018-02-01T01:13:43.069Z,99168.17
2018-02-01T01:14:45.532Z,99171.50
2018-02-01T01:15:48.030Z,99161.66
2018-02-01T01:16:50.544Z,99164.77
2018-02-01T01:17:53.017Z,99166.68
2018-02-01T01:18:55.485Z,99162.73
2018-02-01T01:19:58.020Z,99168.41
2018-02-01T01:21:00.498Z,99167.80
2018-02-01T01:22:02.969Z,99162.87
2018-02-01T01:23:05.422Z,99165.01
2018-02-01T01:24:07.897Z,99167.91
2018-02-01T01:25:10.412Z,99162.16
2018-02-01T01:26:12.906Z,99159.77
2018-02-01T01:27:15.365Z,99164.47
2018-02-01T01:28:17.830Z,99168.38
2018-02-01T01:29:20.301Z,99167.75
2018-02-01T01:30:22.760Z,99174.41
2018-02-01T01:31:25.239Z,99172.02
2018-02-01T01:32:27.698Z,99177.30
2018-02-01T01:33:30.158Z,99178.05
2018-02-01T01:34:32.640Z,99180.19
2018-02-01T01:35:35.113Z,99180.37
2018-02-01T01:36:37.622Z,99177.58
2018-02-01T01:37:40.083Z,99180.51
2018-02-01T01:38:42.562Z,99180.83
2018-02-01T01:39:45.033Z,99180.44
2018-02-01T01:40:47.503Z,99185.31
2018-02-01T01:41:49.996Z,99179.59
2018-02-01T01:42:52.451Z,99187.63
2018-02-01T01:43:54.912Z,99190.16
2018-02-01T01:44:57.385Z,99191.53
2018-02-01T01:46:10.710Z,99192.14
2018-02-01T01:47:13.193Z,99191.14
2018-02-01T01:48:15.665Z,99195.42
2018-02-01T01:49:18.136Z,99191.53
2018-02-01T01:50:20.590Z,99190.89
2018-02-01T01:51:23.064Z,99187.13
2018-02-01T01:52:25.552Z,99192.70
2018-02-01T01:53:28.006Z,99187.38
2018-02-01T01:54:30.458Z,99195.34
2018-02-01T01:55:32.914Z,99189.08
2018-02-01T01:56:35.367Z,99186.58
2018-02-01T01:57:37.846Z,99186.00
2018-02-01T01:58:40.298Z,99189.59
2018-02-01T01:59:42.773Z,99180.75
2018-02-01T02:00:45.244Z,99181.73
2018-02-01T02:01:47.717Z,99182.13
2018-02-01T02:02:50.208Z,99177.03
2018-02-01T02:03:52.759Z,99181.73
2018-02-01T02:04:56.160Z,99181.73
2018-02-01T02:05:58.633Z,99182.89
2018-02-01T02:07:01.086Z,99182.45
2018-02-01T02:08:03.571Z,99177.14
2018-02-01T02:09:06.040Z,99179.48
2018-02-01T02:10:08.515Z,99183.40
2018-02-01T02:11:10.979Z,99178.84
2018-02-01T02:12:13.449Z,99178.59
2018-02-01T02:13:15.953Z,99173.62
2018-02-01T02:14:18.425Z,99167.52
2018-02-01T02:15:20.895Z,99170.45
2018-02-01T02:16:23.346Z,99172.00
2018-02-01T02:17:25.821Z,99164.51
2018-02-01T02:18:28.294Z,99168.45
2018-02-01T02:19:30.753Z,99171.38
2018-02-01T02:20:33.216Z,99171.82
2018-02-01T02:21:35.686Z,99170.80
2018-02-01T02:22:38.155Z,99171.20
2018-02-01T02:23:40.630Z,99174.53
2018-02-01T02:24:43.087Z,99170.98
2018-02-01T02:25:45.564Z,99172.76
2018-02-01T02:26:48.045Z,99169.39
2018-02-01T02:27:50.506Z,99176.45
2018-02-01T02:28:53.001Z,99171.53
2018-02-01T02:29:55.481Z,99173.05
2018-02-01T02:30:57.935Z,99172.84
2018-02-01T02:32:00.391Z,99166.72
2018-02-01T02:33:02.861Z,99173.55
2018-02-01T02:34:05.339Z,99166.03
2018-02-01T02:35:07.794Z,99170.52
2018-02-01T02:36:10.269Z,99168.93
2018-02-01T02:37:12.744Z,99168.31
2018-02-01T02:38:15.198Z,99168.49
2018-02-01T02:39:17.689Z,99171.60
2018-02-01T02:40:20.160Z,99170.41
2018-02-01T02:41:22.641Z,99166.68
2018-02-01T02:42:25.094Z,99163.39
2018-02-01T02:43:27.547Z,99168.63
2018-02-01T02:44:30.027Z,99165.16
2018-02-01T02:45:32.502Z,99156.95
2018-02-01T02:46:35.080Z,99158.13
2018-02-01T02:47:37.540Z,99154.91
2018-02-01T02:48:39.994Z,99154.03
2018-02-01T02:49:42.478Z,99155.87
2018-02-01T02:50:44.949Z,99153.16
2018-02-01T02:51:47.420Z,99147.91
2018-02-01T02:52:49.890Z,99149.53
2018-02-01T02:53:52.360Z,99148.77
2018-02-01T02:54:54.840Z,99149.56
2018-02-01T02:55:57.333Z,99146.27
2018-02-01T02:56:59.809Z,99146.08
2018-02-01T02:58:02.279Z,99148.03
2018-02-01T02:59:04.735Z,99149.56
2018-02-01T03:00:07.225Z,99145.44
2018-02-01T03:01:09.697Z,99144.42
2018-02-01T03:02:12.173Z,99148.16
2018-02-01T03:03:14.671Z,99150.51
2018-02-01T03:04:17.149Z,99145.37
2018-02-01T03:05:19.623Z,99143.16
2018-02-01T03:06:22.093Z,99145.30
2018-02-01T03:07:24.568Z,99146.06
2018-02-01T03:08:27.023Z,99143.28
2018-02-01T03:09:29.474Z,99140.31
2018-02-01T03:10:31.954Z,99139.30
2018-02-01T03:11:34.414Z,99138.50
2018-02-01T03:12:36.884Z,99134.31
2018-02-01T03:13:39.338Z,99137.42
2018-02-01T03:14:41.854Z,99138.98
2018-02-01T03:15:44.340Z,99136.78
2018-02-01T03:16:46.810Z,99133.59
2018-02-01T03:17:49.266Z,99131.20
2018-02-01T03:18:51.740Z,99130.59
2018-02-01T03:19:54.241Z,99138.41
2018-02-01T03:20:56.732Z,99131.68
2018-02-01T03:21:59.208Z,99135.95
2018-02-01T03:23:01.665Z,99136.31
2018-02-01T03:24:04.118Z,99137.27
2018-02-01T03:25:06.588Z,99132.92
2018-02-01T03:26:09.080Z,99135.63
2018-02-01T03:27:11.538Z,99134.63
2018-02-01T03:28:14.015Z,99134.41
2018-02-01T03:29:16.485Z,99134.16
2018-02-01T03:30:18.939Z,99134.91
2018-02-01T03:31:21.437Z,99133.90
2018-02-01T03:32:23.908Z,99136.58
2018-02-01T03:33:26.362Z,99136.15
2018-02-01T03:34:28.819Z,99132.02
2018-02-01T03:35:31.291Z,99130.65
2018-02-01T03:36:33.781Z,99128.98
2018-02-01T03:37:36.285Z,99126.27
2018-02-01T03:38:38.747Z,99128.06
2018-02-01T03:39:41.221Z,99125.09
2018-02-01T03:40:43.679Z,99128.12
2018-02-01T03:41:46.185Z,99129.45
2018-02-01T03:42:48.660Z,99125.86
2018-02-01T03:43:51.141Z,99128.50
2018-02-01T03:44:53.610Z,99125.20
2018-02-01T03:45:56.083Z,99125.69
2018-02-01T03:46:58.567Z,99126.30
2018-02-01T03:48:01.037Z,99126.34
2018-02-01T03:49:03.499Z,99129.48
2018-02-01T03:50:05.959Z,99123.22
2018-02-01T03:51:08.433Z,99126.38
2018-02-01T03:52:10.910Z,99129.92
2018-02-01T03:53:13.377Z,99128.14
2018-02-01T03:54:15.853Z,99134.23
2018-02-01T03:55:18.325Z,99126.34
2018-02-01T03:56:20.795Z,99127.72
2018-02-01T03:57:23.284Z,99131.41
2018-02-01T03:58:25.756Z,99132.36
2018-02-01T03:59:28.213Z,99130.55
2018-02-01T04:00:30.683Z,99125.34
2018-02-01T04:01:33.153Z,99123.54
2018-02-01T04:02:35.653Z,99124.09
2018-02-01T04:03:38.111Z,99126.01
2018-02-01T04:04:40.581Z,99122.03
2018-02-01T04:05:43.053Z,99122.39
2018-02-01T04:06:45.536Z,99116.83
2018-02-01T04:07:48.014Z,99115.59
2018-02-01T04:08:50.484Z,99119.88
2018-02-01T04:09:52.943Z,99124.58
2018-02-01T04:10:55.413Z,99124.55
2018-02-01T04:11:57.885Z,99117.23
2018-02-01T04:13:00.387Z,99120.75
2018-02-01T04:14:02.842Z,99119.34
2018-02-01T04:15:05.313Z,99117.74
2018-02-01T04:16:07.789Z,99114.78
2018-02-01T04:17:10.260Z,99123.36
2018-02-01T04:18:12.752Z,99123.33
2018-02-01T04:19:15.228Z,99124.66
2018-02-01T04:20:17.701Z,99118.55
2018-02-01T04:21:20.172Z,99121.09
2018-02-01T04:22:22.645Z,99123.22
2018-02-01T04:23:25.136Z,99127.67
2018-02-01T04:24:27.608Z,99121.56
2018-02-01T04:25:30.059Z,99122.53
2018-02-01T04:26:32.532Z,99124.31
2018-02-01T04:27:34.990Z,99125.58
2018-02-01T04:28:37.488Z,99123.29
2018-02-01T04:29:39.951Z,99119.05
2018-02-01T04:30:42.411Z,99118.43
2018-02-01T04:31:44.883Z,99123.85
2018-02-01T04:32:47.352Z,99123.22
2018-02-01T04:33:49.831Z,99121.58
2018-02-01T04:34:52.300Z,99128.02
2018-02-01T04:35:54.777Z,99124.10
2018-02-01T04:36:57.235Z,99123.73
2018-02-01T04:37:59.690Z,99124.20
2018-02-01T04:39:02.181Z,99121.84
2018-02-01T04:40:04.635Z,99137.41
2018-02-01T04:41:07.095Z,99119.92
2018-02-01T04:42:09.565Z,99117.59
2018-02-01T04:43:12.023Z,99120.75
2018-02-01T04:44:14.517Z,99120.13
2018-02-01T04:45:16.989Z,99120.89
2018-02-01T04:46:19.460Z,99125.64
2018-02-01T04:47:21.915Z,99119.52
2018-02-01T04:48:24.392Z,99124.59
2018-02-01T04:49:26.881Z,99125.36
2018-02-01T04:50:29.339Z,99124.34
2018-02-01T04:51:31.819Z,99127.25
2018-02-01T04:52:34.289Z,99126.23
2018-02-01T04:53:36.762Z,99123.82
2018-02-01T04:54:39.253Z,99123.97
2018-02-01T04:55:41.711Z,99123.75
2018-02-01T04:56:44.180Z,99121.95
2018-02-01T04:57:46.638Z,99123.11
2018-02-01T04:58:49.098Z,99112.65
2018-02-01T04:59:51.594Z,99125.39
2018-02-01T05:00:54.102Z,99121.02
2018-02-01T05:01:56.577Z,99128.23
2018-02-01T05:02:59.031Z,99132.14
2018-02-01T05:04:01.520Z,99127.58
2018-02-01T05:05:03.994Z,99122.63
2018-02-01T05:06:06.464Z,99122.80
2018-02-01T05:07:08.936Z,99124.33
2018-02-01T05:08:11.394Z,99125.48
2018-02-01T05:09:13.868Z,99125.45
2018-02-01T05:10:16.347Z,99122.27
2018-02-01T05:11:18.798Z,99117.09
2018-02-01T05:12:21.260Z,99122.38
2018-02-01T05:13:23.733Z,99116.84
2018-02-01T05:14:26.200Z,99119.38
2018-02-01T05:15:28.674Z,99119.34
2018-02-01T05:16:31.135Z,99115.80
2018-02-01T05:17:33.620Z,99118.19
2018-02-01T05:18:36.087Z,99116.84
2018-02-01T05:19:38.556Z,99113.87
2018-02-01T05:20:41.039Z,99113.17
2018-02-01T05:21:43.490Z,99113.53
2018-02-01T05:22:45.946Z,99114.27
2018-02-01T05:23:48.417Z,99111.80
2018-02-01T05:24:50.890Z,99107.41
2018-02-01T05:25:53.404Z,99117.13
2018-02-01T05:26:55.859Z,99113.86
2018-02-01T05:27:58.332Z,99111.14
2018-02-01T05:29:00.785Z,99113.59
2018-02-01T05:30:03.246Z,99114.63
2018-02-01T05:31:05.741Z,99111.70
2018-02-01T05:32:08.202Z,99109.59
2018-02-01T05:33:10.676Z,99111.55
2018-02-01T05:34:13.177Z,99109.77
2018-02-01T05:35:15.653Z,99112.31
2018-02-01T05:36:18.144Z,99107.97
2018-02-01T05:37:20.624Z,99109.92
2018-02-01T05:38:23.097Z,99111.27
2018-02-01T05:39:25.569Z,99104.75
2018-02-01T05:40:28.030Z,99112.77
2018-02-01T05:41:30.521Z,99105.20
2018-02-01T05:42:32.993Z,99103.01
2018-02-01T05:43:35.476Z,99099.03
2018-02-01T05:44:38.042Z,99103.13
2018-02-01T05:45:40.605Z,99104.29
2018-02-01T05:46:43.096Z,99101.69
2018-02-01T05:47:45.571Z,99105.14
2018-02-01T05:48:48.031Z,99107.06
2018-02-01T05:49:50.505Z,99112.53
2018-02-01T05:50:52.962Z,99106.60
2018-02-01T05:51:55.457Z,99116.20
2018-02-01T05:52:57.929Z,99114.02
2018-02-01T05:54:00.400Z,99109.86
2018-02-01T05:55:02.871Z,99106.68
2018-02-01T05:56:05.359Z,99109.03
2018-02-01T05:57:07.847Z,99111.39
2018-02-01T05:58:10.320Z,99104.73
2018-02-01T05:59:12.788Z,99104.18
2018-02-01T06:00:15.371Z,99103.41
2018-02-01T06:01:17.853Z,99105.16
2018-02-01T06:02:20.349Z,99104.14
2018-02-01T06:03:22.813Z,99099.27
2018-02-01T06:04:25.305Z,99103.66
2018-02-01T06:05:27.782Z,99108.63
2018-02-01T06:06:30.257Z,99104.19
2018-02-01T06:07:32.739Z,99105.82
2018-02-01T06:08:35.213Z,99108.44
2018-02-01T06:09:37.722Z,99114.22
2018-02-01T06:10:40.184Z,99111.22
2018-02-01T06:11:42.648Z,99112.67
2018-02-01T06:12:45.130Z,99107.89
2018-02-01T06:13:47.933Z,99107.71
2018-02-01T06:14:50.457Z,99104.53
2018-02-01T06:15:52.918Z,99109.59
2018-02-01T06:16:55.502Z,99106.45
2018-02-01T06:17:57.983Z,99103.27
2018-02-01T06:19:00.442Z,99107.16
2018-02-01T06:20:02.939Z,99115.77
2018-02-01T06:21:05.433Z,99111.39
2018-02-01T06:22:07.904Z,99111.14
2018-02-01T06:23:10.410Z,99108.72
2018-02-01T06:24:12.883Z,99109.26
2018-02-01T06:25:15.361Z,99109.00
2018-02-01T06:26:17.841Z,99113.27
2018-02-01T06:27:20.330Z,99111.23
2018-02-01T06:28:22.891Z,99112.72
2018-02-01T06:29:25.391Z,99114.41
2018-02-01T06:30:27.847Z,99118.45
2018-02-01T06:31:30.328Z,99113.28
2018-02-01T06:32:32.786Z,99114.72
2018-02-01T06:33:35.262Z,99116.02
2018-02-01T06:34:37.741Z,99116.51
2018-02-01T06:35:40.224Z,99116.03
2018-02-01T06:36:42.705Z,99120.03
2018-02-01T06:37:45.176Z,99118.18
2018-02-01T06:38:47.682Z,99117.92
2018-02-01T06:39:50.134Z,99112.70
2018-02-01T06:40:52.590Z,99123.58
2018-02-01T06:41:55.047Z,99121.94
2018-02-01T06:42:57.563Z,99114.98
2018-02-01T06:44:00.044Z,99120.39
2018-02-01T06:45:02.502Z,99123.09
2018-02-01T06:46:04.967Z,99127.09
2018-02-01T06:47:07.441Z,99124.09
2018-02-01T06:48:09.912Z,99122.05
2018-02-01T06:49:12.438Z,99118.64
2018-02-01T06:50:14.874Z,99122.89
2018-02-01T06:51:17.354Z,99116.70
2018-02-01T06:52:19.819Z,99118.61
2018-02-01T06:53:22.292Z,99119.14
2018-02-01T06:54:24.776Z,99127.51
2018-02-01T06:55:27.231Z,99124.72
2018-02-01T06:56:29.692Z,99126.22
2018-02-01T06:57:32.160Z,99129.89
2018-02-01T06:58:34.634Z,99130.17
2018-02-01T06:59:37.135Z,99132.47
2018-02-01T07:00:54.398Z,99133.00
2018-02-01T07:01:56.870Z,99138.79
2018-02-01T07:02:59.342Z,99131.27
2018-02-01T07:04:01.821Z,99135.47
2018-02-01T07:05:04.302Z,99129.55
2018-02-01T07:06:06.801Z,99129.84
2018-02-01T07:07:09.273Z,99129.17
2018-02-01T07:08:11.746Z,99125.19
2018-02-01T07:09:14.227Z,99125.89
2018-02-01T07:10:16.716Z,99129.12
2018-02-01T07:11:19.171Z,99130.05
2018-02-01T07:12:21.639Z,99130.58
2018-02-01T07:13:24.123Z,99126.42
2018-02-01T07:14:26.637Z,99133.22
2018-02-01T07:15:29.126Z,99133.75
2018-02-01T07:16:31.637Z,99137.81
2018-02-01T07:17:34.122Z,99134.81
2018-02-01T07:18:36.599Z,99138.63
2018-02-01T07:19:39.070Z,99142.29
2018-02-01T07:20:42.393Z,99141.27
2018-02-01T07:21:44.877Z,99139.45
2018-02-01T07:22:47.424Z,99139.22
2018-02-01T07:23:49.879Z,99145.63
2018-02-01T07:24:52.365Z,99149.52
2018-02-01T07:25:54.870Z,99149.06
2018-02-01T07:26:57.343Z,99148.02
2018-02-01T07:27:59.807Z,99153.05
2018-02-01T07:29:02.377Z,99151.05
2018-02-01T07:30:04.835Z,99155.52
2018-02-01T07:31:07.331Z,99150.33
2018-02-01T07:32:09.802Z,99142.27
2018-02-01T07:33:12.285Z,99143.08
2018-02-01T07:34:14.754Z,99144.62
2018-02-01T07:35:17.245Z,99152.42
2018-02-01T07:36:19.731Z,99147.75
2018-02-01T07:37:22.200Z,99143.39
2018-02-01T07:38:24.758Z,99151.87
2018-02-01T07:39:27.226Z,99155.47
2018-02-01T07:40:29.714Z,99151.98
2018-02-01T07:41:32.194Z,99155.13
2018-02-01T07:42:34.673Z,99152.02
2018-02-01T07:43:37.148Z,99149.45
2018-02-01T07:44:39.632Z,99142.52
2018-02-01T07:47:20.605Z,99150.84
2018-02-01T07:48:23.091Z,99151.05
2018-02-01T07:49:25.565Z,99150.46
2018-02-01T07:50:28.025Z,99147.63
2018-02-01T07:51:30.528Z,99153.48
2018-02-01T07:52:33.004Z,99153.38
2018-02-01T07:53:35.477Z,99153.41
2018-02-01T07:54:37.952Z,99147.72
2018-02-01T07:55:40.407Z,99145.28
2018-02-01T07:56:42.885Z,99147.09
2018-02-01T07:57:45.357Z,99149.30
2018-02-01T07:58:47.844Z,99149.00
2018-02-01T07:59:50.325Z,99146.91
2018-02-01T08:00:52.801Z,99149.30
2018-02-01T08:01:55.272Z,99144.89
2018-02-01T08:02:57.729Z,99150.86
2018-02-01T08:04:00.188Z,99148.26
2018-02-01T08:05:02.662Z,99145.38
2018-02-01T08:06:05.119Z,99153.18
2018-02-01T08:07:07.592Z,99159.73
2018-02-01T08:08:10.057Z,99160.16
2018-02-01T08:09:12.656Z,99150.48
2018-02-01T08:10:15.123Z,99154.19
2018-02-01T08:11:17.656Z,99155.81
2018-02-01T08:12:20.155Z,99152.11
2018-02-01T08:13:22.635Z,99153.55
2018-02-01T08:14:25.112Z,99149.94
2018-02-01T08:15:27.578Z,99149.91
2018-02-01T08:16:30.055Z,99147.80
2018-02-01T08:17:43.038Z,99142.17
2018-02-01T08:18:45.509Z,99144.19
2018-02-01T08:19:47.967Z,99144.46
2018-02-01T08:20:50.436Z,99144.98
2018-02-01T08:21:52.916Z,99152.16
2018-02-01T08:22:55.385Z,99148.27
2018-02-01T08:23:57.842Z,99147.41
2018-02-01T08:25:00.325Z,99146.83
2018-02-01T08:26:02.800Z,99145.78
2018-02-01T08:27:05.272Z,99148.88
2018-02-01T08:28:07.745Z,99142.58
2018-02-01T08:29:10.250Z,99149.80
2018-02-01T08:30:12.721Z,99145.61
2018-02-01T08:31:15.179Z,99148.71
2018-02-01T08:32:17.638Z,99148.28
2018-02-01T08:33:20.095Z,99146.42
2018-02-01T08:34:22.554Z,99147.58
2018-02-01T08:35:25.027Z,99144.09
2018-02-01T08:36:27.497Z,99139.31
2018-02-01T08:37:29.955Z,99138.84
2018-02-01T08:38:32.433Z,99142.30
2018-02-01T08:39:35.040Z,99141.03
2018-02-01T08:40:37.500Z,99135.94
2018-02-01T08:41:39.984Z,99139.16
2018-02-01T08:42:42.456Z,99144.88
2018-02-01T08:43:44.928Z,99143.71
2018-02-01T08:44:47.383Z,99142.44
2018-02-01T08:45:49.843Z,99142.77
2018-02-01T08:46:52.298Z,99144.09
2018-02-01T08:47:54.756Z,99141.50
2018-02-01T08:48:57.210Z,99146.77
2018-02-01T08:49:59.683Z,99137.13
2018-02-01T08:51:02.187Z,99142.91
2018-02-01T08:52:04.644Z,99149.82
2018-02-01T08:53:07.102Z,99143.05
2018-02-01T08:54:10.069Z,99137.61
2018-02-01T08:55:12.533Z,99140.50
2018-02-01T08:56:15.006Z,99131.86
2018-02-01T08:57:17.475Z,99136.20
2018-02-01T08:58:19.934Z,99136.91
2018-02-01T08:59:22.395Z,99138.48
2018-02-01T09:00:24.865Z,99138.33
2018-02-01T09:01:27.336Z,99140.30
2018-02-01T09:02:29.824Z,99142.44
2018-02-01T09:03:32.305Z,99140.05
2018-02-01T09:04:34.777Z,99148.45
2018-02-01T09:05:37.253Z,99148.59
2018-02-01T09:06:39.711Z,99144.61
2018-02-01T09:07:42.189Z,99149.91
2018-02-01T09:08:44.659Z,99148.56
2018-02-01T09:09:47.127Z,99155.69
2018-02-01T09:10:49.595Z,99164.86
2018-02-01T09:11:52.068Z,99155.41
2018-02-01T09:12:54.890Z,99155.11
2018-02-01T09:13:57.386Z,99155.36
2018-02-01T09:14:59.861Z,99156.66
2018-02-01T09:16:02.329Z,99153.20
2018-02-01T09:17:04.801Z,99155.45
2018-02-01T09:18:07.284Z,99163.20
2018-02-01T09:19:09.747Z,99162.05
2018-02-01T09:20:12.210Z,99160.51
2018-02-01T09:21:14.675Z,99160.30
2018-02-01T09:22:17.132Z,99165.02
2018-02-01T09:23:19.595Z,99166.17
2018-02-01T09:24:22.072Z,99171.61
2018-02-01T09:25:24.545Z,99159.12
2018-02-01T09:26:27.024Z,99155.89
2018-02-01T09:27:29.505Z,99164.67
2018-02-01T09:28:31.981Z,99160.83
2018-02-01T09:29:34.457Z,99163.11
2018-02-01T09:30:37.012Z,99161.42
2018-02-01T09:31:39.487Z,99159.14
2018-02-01T09:32:41.956Z,99156.45
2018-02-01T09:33:44.414Z,99155.58
2018-02-01T09:34:46.892Z,99161.41
2018-02-01T09:35:49.342Z,99154.41
2018-02-01T09:36:51.799Z,99157.88
2018-02-01T09:37:54.252Z,99155.03
2018-02-01T09:38:56.711Z,99154.55
2018-02-01T09:39:59.188Z,99154.09
2018-02-01T09:41:01.693Z,99147.91
2018-02-01T09:42:04.180Z,99145.25
2018-02-01T09:43:06.659Z,99148.92
2018-02-01T09:44:09.141Z,99152.78
2018-02-01T09:45:11.617Z,99150.13
2018-02-01T09:46:14.085Z,99159.09
2018-02-01T09:47:16.549Z,99151.96
2018-02-01T09:48:19.013Z,99157.41
2018-02-01T09:49:21.505Z,99149.48
2018-02-01T09:50:23.977Z,99148.25
2018-02-01T09:51:26.449Z,99151.92
2018-02-01T09:52:28.907Z,99150.70
2018-02-01T09:53:31.376Z,99155.56
2018-02-01T09:54:33.849Z,99152.38
2018-02-01T09:55:36.321Z,99151.95
2018-02-01T09:56:38.777Z,99154.48
2018-02-01T09:57:41.253Z,99152.67
2018-02-01T09:58:43.772Z,99153.59
2018-02-01T09:59:46.238Z,99156.31
2018-02-01T10:00:48.738Z,99154.29
2018-02-01T10:01:51.214Z,99157.38
2018-02-01T10:02:53.688Z,99157.89
2018-02-01T10:03:56.159Z,99159.95
2018-02-01T10:04:58.634Z,99163.84
2018-02-01T10:06:01.105Z,99160.61
2018-02-01T10:07:03.634Z,99166.27
2018-02-01T10:08:06.100Z,99157.36
2018-02-01T10:09:08.593Z,99160.02
2018-02-01T10:10:11.046Z,99159.36
2018-02-01T10:11:13.498Z,99158.13
2018-02-01T10:12:15.956Z,99165.16
2018-02-01T10:13:18.445Z,99162.55
2018-02-01T10:14:20.902Z,99164.04
2018-02-01T10:15:23.377Z,99166.94
2018-02-01T10:16:25.835Z,99156.08
2018-02-01T10:17:28.306Z,99164.87
2018-02-01T10:18:30.777Z,99164.00
2018-02-01T10:19:33.250Z,99159.23
2018-02-01T10:20:35.729Z,99165.06
2018-02-01T10:21:38.205Z,99163.43
2018-02-01T10:22:40.677Z,99167.30
2018-02-01T10:23:43.135Z,99170.59
2018-02-01T10:24:45.599Z,99165.23
2018-02-01T10:25:48.058Z,99168.52
2018-02-01T10:26:50.544Z,99165.88
2018-02-01T10:27:53.040Z,99161.90
2018-02-01T10:28:55.525Z,99159.91
2018-02-01T10:29:57.987Z,99159.47
2018-02-01T10:31:00.447Z,99162.18
2018-02-01T10:32:02.908Z,99155.67
2018-02-01T10:33:06.320Z,99155.81
2018-02-01T10:34:08.774Z,99152.63
2018-02-01T10:35:11.256Z,99154.91
2018-02-01T10:36:13.729Z,99157.43
2018-02-01T10:37:16.665Z,99163.29
2018-02-01T10:38:19.886Z,99157.75
2018-02-01T10:39:22.342Z,99154.20
2018-02-01T10:40:24.804Z,99151.64
2018-02-01T10:41:27.296Z,99150.22
2018-02-01T10:42:29.774Z,99155.68
2018-02-01T10:43:32.234Z,99153.11
2018-02-01T10:44:34.714Z,99149.17
2018-02-01T10:45:37.190Z,99152.67
2018-02-01T10:46:39.669Z,99148.16
2018-02-01T10:47:42.143Z,99151.23
2018-02-01T10:48:44.626Z,99152.20
2018-02-01T10:49:47.084Z,99149.05
2018-02-01T10:50:49.543Z,99155.13
2018-02-01T10:51:52.002Z,99148.66
2018-02-01T10:52:54.462Z,99152.78
2018-02-01T10:53:56.924Z,99156.11
2018-02-01T10:54:59.387Z,99154.33
2018-02-01T10:56:01.851Z,99149.05
2018-02-01T10:57:04.326Z,99152.60
2018-02-01T10:58:06.804Z,99141.06
2018-02-01T10:59:09.388Z,99147.50
2018-02-01T11:00:11.887Z,99139.69
2018-02-01T11:01:14.373Z,99137.73
2018-02-01T11:02:16.848Z,99136.11
2018-02-01T11:03:19.307Z,99137.48
2018-02-01T11:04:21.771Z,99137.84
2018-02-01T11:05:24.246Z,99138.38
2018-02-01T11:06:26.702Z,99142.69
2018-02-01T11:07:29.159Z,99142.06
2018-02-01T11:08:31.645Z,99145.97
2018-02-01T11:09:34.103Z,99142.20
2018-02-01T11:10:36.554Z,99140.80
2018-02-01T11:11:39.029Z,99142.13
2018-02-01T11:12:41.490Z,99139.55
2018-02-01T11:13:43.969Z,99136.34
2018-02-01T11:14:46.434Z,99138.87
2018-02-01T11:15:48.899Z,99136.08
2018-02-01T11:16:51.566Z,99133.69
2018-02-01T11:17:54.037Z,99127.98
2018-02-01T11:18:56.507Z,99129.53
2018-02-01T11:19:58.979Z,99118.89
2018-02-01T11:21:01.437Z,99126.34
2018-02-01T11:22:03.924Z,99123.20
2018-02-01T11:23:06.387Z,99128.69
2018-02-01T11:24:08.882Z,99129.66
2018-02-01T11:25:11.362Z,99124.17
2018-02-01T11:26:13.837Z,99127.89
2018-02-01T11:27:16.294Z,99128.07
2018-02-01T11:28:19.112Z,99125.33
2018-02-01T11:29:21.675Z,99128.33
2018-02-01T11:30:24.145Z,99123.81
2018-02-01T11:31:26.645Z,99131.52
2018-02-01T11:32:29.111Z,99126.20
2018-02-01T11:33:31.567Z,99125.50
2018-02-01T11:34:34.027Z,99134.16
2018-02-01T11:35:36.514Z,99136.16
2018-02-01T11:36:38.978Z,99130.02
2018-02-01T11:37:41.457Z,99130.44
2018-02-01T11:38:43.941Z,99132.88
2018-02-01T11:39:46.412Z,99127.30
2018-02-01T11:40:48.993Z,99127.08
2018-02-01T11:41:51.474Z,99121.20
2018-02-01T11:42:53.927Z,99124.78
2018-02-01T11:43:56.387Z,99115.25
2018-02-01T11:44:58.848Z,99116.97
2018-02-01T11:46:01.399Z,99113.22
2018-02-01T11:47:03.863Z,99109.23
2018-02-01T11:48:06.345Z,99109.33
2018-02-01T11:49:08.813Z,99115.84
2018-02-01T11:50:11.297Z,99111.55
2018-02-01T11:51:13.774Z,99106.76
2018-02-01T11:52:16.248Z,99102.77
2018-02-01T11:53:18.733Z,99100.95
2018-02-01T11:54:21.208Z,99104.80
2018-02-01T11:55:23.670Z,99102.06
2018-02-01T11:56:26.149Z,99110.95
2018-02-01T11:57:28.614Z,99108.15
2018-02-01T11:58:31.111Z,99109.10
2018-02-01T11:59:33.582Z,99105.33
2018-02-01T12:00:36.054Z,99095.07
2018-02-01T12:01:38.525Z,99104.77
2018-02-01T12:02:41.012Z,99092.88
2018-02-01T12:03:43.483Z,99096.61
2018-02-01T12:04:45.958Z,99098.38
2018-02-01T12:05:48.627Z,99095.67
2018-02-01T12:06:51.099Z,99093.14
2018-02-01T12:07:53.575Z,99092.49
2018-02-01T12:08:56.049Z,99102.98
2018-02-01T12:09:58.515Z,99100.28
2018-02-01T12:11:00.976Z,99098.27
2018-02-01T12:12:03.453Z,99093.28
2018-02-01T12:13:05.933Z,99088.40
2018-02-01T12:14:08.405Z,99089.70
2018-02-01T12:15:10.869Z,99097.67
2018-02-01T12:16:13.354Z,99088.22
2018-02-01T12:17:15.811Z,99091.60